Terminal Aerodrome Forecast
Issued by NWS Billings, MT

Home | Current Version | Previous Version | Text Only | Print | Product List | Glossary On
Versions: 1 2 3 4 5 6 7 8 9 10 11 12 13
000
FTUS45 KBYZ 131720
TAFSHR
TAF
KSHR 131720Z 1318/1418 32016KT P6SM SCT120
     FM132100 32014KT P6SM BKN080
     FM140900 31019G28KT P6SM BKN035=

USA.gov is the U.S. government's official web portal to all federal, state and local government web resources and services.